createdAt,value
2016-12-28T00:00:52.732Z,8.66
2016-12-28T00:01:53.439Z,8.61
2016-12-28T00:02:54.070Z,8.56
2016-12-28T00:03:54.764Z,8.63
2016-12-28T00:04:55.437Z,8.63
2016-12-28T00:05:56.119Z,8.53
2016-12-28T00:06:56.812Z,8.63
2016-12-28T00:07:57.497Z,8.64
2016-12-28T00:08:58.173Z,8.64
2016-12-28T00:09:58.817Z,8.64
2016-12-28T00:10:59.503Z,8.63
2016-12-28T00:12:00.155Z,8.58
2016-12-28T00:13:00.814Z,8.64
2016-12-28T00:14:01.488Z,8.61
2016-12-28T00:15:02.174Z,8.6
2016-12-28T00:16:02.907Z,8.63
2016-12-28T00:17:03.578Z,8.6
2016-12-28T00:18:04.276Z,8.52
2016-12-28T00:19:04.940Z,8.64
2016-12-28T00:20:05.602Z,8.64
2016-12-28T00:21:06.278Z,8.56
2016-12-28T00:22:06.937Z,8.56
2016-12-28T00:23:07.617Z,8.6
2016-12-28T00:24:08.276Z,8.6
2016-12-28T00:25:08.968Z,8.66
2016-12-28T00:26:09.650Z,8.64
2016-12-28T00:27:10.315Z,8.58
2016-12-28T00:28:10.981Z,8.61
2016-12-28T00:29:11.642Z,8.63
2016-12-28T00:30:12.340Z,8.67
2016-12-28T00:31:13.024Z,8.58
2016-12-28T00:32:13.690Z,8.64
2016-12-28T00:33:14.361Z,8.64
2016-12-28T00:34:15.036Z,8.64
2016-12-28T00:35:15.707Z,8.66
2016-12-28T00:36:16.381Z,8.6
2016-12-28T00:37:17.051Z,8.69
2016-12-28T00:38:17.775Z,8.63
2016-12-28T00:39:18.418Z,8.63
2016-12-28T00:40:19.079Z,8.66
2016-12-28T00:41:19.744Z,8.58
2016-12-28T00:42:20.405Z,8.64
2016-12-28T00:43:21.062Z,8.63
2016-12-28T00:44:21.726Z,8.64
2016-12-28T00:45:22.397Z,8.67
2016-12-28T00:46:23.067Z,8.6
2016-12-28T00:47:23.731Z,8.64
2016-12-28T00:48:24.382Z,8.63
2016-12-28T00:49:25.040Z,8.61
2016-12-28T00:50:25.706Z,8.69
2016-12-28T00:51:26.371Z,8.66
2016-12-28T00:52:27.040Z,8.61
2016-12-28T00:53:27.710Z,8.58
2016-12-28T00:54:28.387Z,8.67
2016-12-28T00:55:29.061Z,8.61
2016-12-28T00:56:29.728Z,8.67
2016-12-28T00:57:30.395Z,8.67
2016-12-28T00:58:31.068Z,8.64
2016-12-28T00:59:31.727Z,8.64
2016-12-28T01:00:32.397Z,8.64
2016-12-28T01:01:33.121Z,8.63
2016-12-28T01:02:33.823Z,8.67
2016-12-28T01:03:34.494Z,8.61
2016-12-28T01:04:35.166Z,8.67
2016-12-28T01:05:35.838Z,8.6
2016-12-28T01:06:36.542Z,8.63
2016-12-28T01:07:37.198Z,8.61
2016-12-28T01:08:37.852Z,8.64
2016-12-28T01:09:38.524Z,8.66
2016-12-28T01:10:39.207Z,8.64
2016-12-28T01:11:39.891Z,8.64
2016-12-28T01:12:40.548Z,8.66
2016-12-28T01:13:41.213Z,8.63
2016-12-28T01:14:41.897Z,8.58
2016-12-28T01:15:42.561Z,8.63
2016-12-28T01:16:43.230Z,8.61
2016-12-28T01:17:43.881Z,8.64
2016-12-28T01:18:44.575Z,8.66
2016-12-28T01:19:45.247Z,8.64
2016-12-28T01:20:45.945Z,8.61
2016-12-28T01:21:46.609Z,8.69
2016-12-28T01:22:47.265Z,8.63
2016-12-28T01:23:47.955Z,8.67
2016-12-28T01:24:48.676Z,8.64
2016-12-28T01:25:49.340Z,8.63
2016-12-28T01:26:50.004Z,8.67
2016-12-28T01:27:50.691Z,8.67
2016-12-28T01:28:51.357Z,8.66
2016-12-28T01:29:52.032Z,8.63
2016-12-28T01:30:52.724Z,8.69
2016-12-28T01:31:53.380Z,8.64
2016-12-28T01:32:54.051Z,8.61
2016-12-28T01:33:54.719Z,8.63
2016-12-28T01:34:55.402Z,8.63
2016-12-28T01:35:56.068Z,8.6
2016-12-28T01:36:56.759Z,8.58
2016-12-28T01:37:57.439Z,8.66
2016-12-28T01:38:58.116Z,8.64
2016-12-28T01:39:58.780Z,8.6
2016-12-28T01:40:59.453Z,8.64
2016-12-28T01:42:00.123Z,8.67
2016-12-28T01:43:00.794Z,8.52
2016-12-28T01:44:01.458Z,8.51
2016-12-28T01:45:02.121Z,8.49
2016-12-28T01:46:02.782Z,8.48
2016-12-28T01:47:03.450Z,8.58
2016-12-28T01:48:04.107Z,8.58
2016-12-28T01:49:04.778Z,8.6
2016-12-28T01:50:05.444Z,8.58
2016-12-28T01:51:06.118Z,8.56
2016-12-28T01:52:06.789Z,8.63
2016-12-28T01:53:07.480Z,8.61
2016-12-28T01:54:08.146Z,8.69
2016-12-28T01:55:08.813Z,8.58
2016-12-28T01:56:09.479Z,8.58
2016-12-28T01:57:10.175Z,8.56
2016-12-28T01:58:10.840Z,8.58
2016-12-28T01:59:11.507Z,8.58
2016-12-28T02:00:12.162Z,8.56
2016-12-28T02:01:12.843Z,8.58
2016-12-28T02:02:13.518Z,8.53
2016-12-28T02:03:14.189Z,8.58
2016-12-28T02:04:14.860Z,8.56
2016-12-28T02:05:15.547Z,8.58
2016-12-28T02:06:16.231Z,8.58
2016-12-28T02:07:16.892Z,8.58
2016-12-28T02:08:17.557Z,8.49
2016-12-28T02:09:18.227Z,8.45
2016-12-28T02:10:18.881Z,8.53
2016-12-28T02:11:19.556Z,8.46
2016-12-28T02:12:20.229Z,8.44
2016-12-28T02:13:20.885Z,8.48
2016-12-28T02:14:21.560Z,8.46
2016-12-28T02:15:22.224Z,8.55
2016-12-28T02:16:22.880Z,8.51
2016-12-28T02:17:23.565Z,8.51
2016-12-28T02:18:24.216Z,8.48
2016-12-28T02:19:24.890Z,8.56
2016-12-28T02:20:25.582Z,8.51
2016-12-28T02:21:26.252Z,8.46
2016-12-28T02:22:26.907Z,8.46
2016-12-28T02:23:27.571Z,8.45
2016-12-28T02:24:28.235Z,8.58
2016-12-28T02:25:28.884Z,8.56
2016-12-28T02:26:29.568Z,8.56
2016-12-28T02:27:30.224Z,8.53
2016-12-28T02:28:30.886Z,8.56
2016-12-28T02:29:31.544Z,8.58
2016-12-28T02:30:32.219Z,8.55
2016-12-28T02:31:32.889Z,8.58
2016-12-28T02:32:33.563Z,8.56
2016-12-28T02:33:34.223Z,8.58
2016-12-28T02:34:34.893Z,8.6
2016-12-28T02:35:35.574Z,8.46
2016-12-28T02:36:36.248Z,8.51
2016-12-28T02:37:36.914Z,8.44
2016-12-28T02:38:37.587Z,8.46
2016-12-28T02:39:38.264Z,8.52
2016-12-28T02:40:38.929Z,8.53
2016-12-28T02:41:39.602Z,8.55
2016-12-28T02:42:40.271Z,8.51
2016-12-28T02:43:40.977Z,8.52
2016-12-28T02:44:41.690Z,8.49
2016-12-28T02:45:42.341Z,8.45
2016-12-28T02:46:43.032Z,8.48
2016-12-28T02:47:43.696Z,8.49
2016-12-28T02:48:44.354Z,8.48
2016-12-28T02:49:45.023Z,8.46
2016-12-28T02:50:45.693Z,8.49
2016-12-28T02:51:46.380Z,8.45
2016-12-28T02:52:47.049Z,8.51
2016-12-28T02:53:47.718Z,8.55
2016-12-28T02:54:48.389Z,8.55
2016-12-28T02:55:49.058Z,8.58
2016-12-28T02:56:49.736Z,8.46
2016-12-28T02:57:50.413Z,8.46
2016-12-28T02:58:51.073Z,8.49
2016-12-28T03:00:06.547Z,8.55
2016-12-28T03:01:07.219Z,8.55
2016-12-28T03:02:07.946Z,8.49
2016-12-28T03:03:08.610Z,8.49
2016-12-28T03:04:09.291Z,8.52
2016-12-28T03:05:09.952Z,8.58
2016-12-28T03:06:10.625Z,8.58
2016-12-28T03:07:11.319Z,8.53
2016-12-28T03:08:11.994Z,8.55
2016-12-28T03:09:12.687Z,8.46
2016-12-28T03:10:13.377Z,8.48
2016-12-28T03:11:14.041Z,8.55
2016-12-28T03:12:14.711Z,8.46
2016-12-28T03:13:15.389Z,8.46
2016-12-28T03:14:16.056Z,8.46
2016-12-28T03:15:16.733Z,8.46
2016-12-28T03:16:17.405Z,8.46
2016-12-28T03:17:18.085Z,8.46
2016-12-28T03:18:18.746Z,8.46
2016-12-28T03:19:19.417Z,8.49
2016-12-28T03:20:20.118Z,8.61
2016-12-28T03:21:20.781Z,8.51
2016-12-28T03:22:21.444Z,8.48
2016-12-28T03:23:22.111Z,8.49
2016-12-28T03:24:22.779Z,8.48
2016-12-28T03:25:23.450Z,8.55
2016-12-28T03:26:24.117Z,8.48
2016-12-28T03:27:24.789Z,8.49
2016-12-28T03:28:25.444Z,8.46
2016-12-28T03:29:26.125Z,8.44
2016-12-28T03:30:26.785Z,8.53
2016-12-28T03:31:27.446Z,8.46
2016-12-28T03:32:28.112Z,8.48
2016-12-28T03:33:28.792Z,8.46
2016-12-28T03:34:29.480Z,8.44
2016-12-28T03:35:30.140Z,8.46
2016-12-28T03:36:30.803Z,8.48
2016-12-28T03:37:31.469Z,8.46
2016-12-28T03:38:32.151Z,8.45
2016-12-28T03:39:32.834Z,8.38
2016-12-28T03:40:33.512Z,8.48
2016-12-28T03:41:34.201Z,8.48
2016-12-28T03:42:34.886Z,8.48
2016-12-28T03:43:35.569Z,8.46
2016-12-28T03:44:36.225Z,8.41
2016-12-28T03:45:36.898Z,8.44
2016-12-28T03:46:37.576Z,8.44
2016-12-28T03:47:38.249Z,8.37
2016-12-28T03:48:38.903Z,8.38
2016-12-28T03:49:39.571Z,8.41
2016-12-28T03:50:40.230Z,8.42
2016-12-28T03:51:40.888Z,8.31
2016-12-28T03:52:41.549Z,8.45
2016-12-28T03:53:42.220Z,8.3
2016-12-28T03:54:42.863Z,8.2
2016-12-28T03:55:43.539Z,8.36
2016-12-28T03:56:44.209Z,8.31
2016-12-28T03:57:44.885Z,8.36
2016-12-28T03:58:45.554Z,8.26
2016-12-28T03:59:46.234Z,8.3
2016-12-28T04:00:46.898Z,8.3
2016-12-28T04:01:47.571Z,8.3
2016-12-28T04:02:48.241Z,8.3
2016-12-28T04:03:48.904Z,8.28
2016-12-28T04:04:49.562Z,8.27
2016-12-28T04:05:50.225Z,8.28
2016-12-28T04:06:50.882Z,8.16
2016-12-28T04:07:51.550Z,8.18
2016-12-28T04:08:52.216Z,8.3
2016-12-28T04:09:52.869Z,8.2
2016-12-28T04:10:53.573Z,8.27
2016-12-28T04:11:54.245Z,8.19
2016-12-28T04:12:54.915Z,8.18
2016-12-28T04:13:55.585Z,8.26
2016-12-28T04:14:56.264Z,8.27
2016-12-28T04:15:56.915Z,8.26
2016-12-28T04:16:57.573Z,8.27
2016-12-28T04:17:58.244Z,8.2
2016-12-28T04:18:58.898Z,8.27
2016-12-28T04:19:59.559Z,8.23
2016-12-28T04:21:00.233Z,8.2
2016-12-28T04:22:00.909Z,8.26
2016-12-28T04:23:01.600Z,8.2
2016-12-28T04:24:02.272Z,8.24
2016-12-28T04:25:02.941Z,8.23
2016-12-28T04:26:03.611Z,8.12
2016-12-28T04:27:04.301Z,8.1
2016-12-28T04:28:04.964Z,8.13
2016-12-28T04:29:05.634Z,8.2
2016-12-28T04:30:06.307Z,8.26
2016-12-28T04:31:06.969Z,8.18
2016-12-28T04:32:07.677Z,8.15
2016-12-28T04:33:08.344Z,8.12
2016-12-28T04:34:09.011Z,8.13
2016-12-28T04:35:09.676Z,8.09
2016-12-28T04:36:10.340Z,8.15
2016-12-28T04:37:10.999Z,8.15
2016-12-28T04:38:11.672Z,8.13
2016-12-28T04:39:12.328Z,8.13
2016-12-28T04:40:13.003Z,8.09
2016-12-28T04:41:13.668Z,8.16
2016-12-28T04:42:14.333Z,8.16
2016-12-28T04:43:14.996Z,8.13
2016-12-28T04:44:15.687Z,8.15
2016-12-28T04:45:16.365Z,8.18
2016-12-28T04:46:17.148Z,8.06
2016-12-28T04:47:17.697Z,8.13
2016-12-28T04:48:18.355Z,8.12
2016-12-28T04:49:19.037Z,8.16
2016-12-28T04:50:19.696Z,8.1
2016-12-28T04:51:20.347Z,8.08
2016-12-28T04:52:21.014Z,8.06
2016-12-28T04:53:21.684Z,8.15
2016-12-28T04:54:22.356Z,8.1
2016-12-28T04:55:23.024Z,8.09
2016-12-28T04:56:23.672Z,8.06
2016-12-28T04:57:24.357Z,8.12
2016-12-28T04:58:25.025Z,8.06
2016-12-28T04:59:25.678Z,8.1
2016-12-28T05:00:26.339Z,8.08
2016-12-28T05:01:27.018Z,8.1
2016-12-28T05:02:27.689Z,8.08
2016-12-28T05:03:28.368Z,8.09
2016-12-28T05:04:29.021Z,8.12
2016-12-28T05:05:29.701Z,8.09
2016-12-28T05:06:30.358Z,8.03
2016-12-28T05:07:31.042Z,8.06
2016-12-28T05:08:31.714Z,8.12
2016-12-28T05:09:32.382Z,8.05
2016-12-28T05:10:33.054Z,8.12
2016-12-28T05:11:33.746Z,8.09
2016-12-28T05:12:34.405Z,8.08
2016-12-28T05:13:35.072Z,8.09
2016-12-28T05:14:35.751Z,8.1
2016-12-28T05:15:36.413Z,8.06
2016-12-28T05:16:37.077Z,8.13
2016-12-28T05:17:37.742Z,8.2
2016-12-28T05:18:38.425Z,8.19
2016-12-28T05:19:39.080Z,8.2
2016-12-28T05:20:39.751Z,8.24
2016-12-28T05:21:40.443Z,8.18
2016-12-28T05:22:41.114Z,8.18
2016-12-28T05:23:41.794Z,8.24
2016-12-28T05:24:42.467Z,8.19
2016-12-28T05:25:43.138Z,8.16
2016-12-28T05:26:43.788Z,8.18
2016-12-28T05:27:44.789Z,8.19
2016-12-28T05:28:45.459Z,8.28
2016-12-28T05:29:46.141Z,8.28
2016-12-28T05:30:46.824Z,8.28
2016-12-28T05:31:47.479Z,8.23
2016-12-28T05:32:48.144Z,8.33
2016-12-28T05:33:48.824Z,8.41
2016-12-28T05:34:49.501Z,8.48
2016-12-28T05:35:50.167Z,8.55
2016-12-28T05:36:50.846Z,8.49
2016-12-28T05:37:51.509Z,8.48
2016-12-28T05:38:52.159Z,8.42
2016-12-28T05:39:52.828Z,8.41
2016-12-28T05:40:53.505Z,8.42
2016-12-28T05:41:54.195Z,8.45
2016-12-28T05:42:54.849Z,8.52
2016-12-28T05:43:55.520Z,8.46
2016-12-28T05:44:56.200Z,8.38
2016-12-28T05:45:56.856Z,8.36
2016-12-28T05:46:57.522Z,8.36
2016-12-28T05:47:58.183Z,8.27
2016-12-28T05:48:58.859Z,8.41
2016-12-28T05:49:59.529Z,8.24
2016-12-28T05:51:00.220Z,8.28
2016-12-28T05:52:00.942Z,8.36
2016-12-28T05:53:01.598Z,8.38
2016-12-28T05:54:02.270Z,8.38
2016-12-28T05:55:02.927Z,8.36
2016-12-28T05:56:03.677Z,8.3
2016-12-28T05:57:04.337Z,8.34
2016-12-28T05:58:05.022Z,8.36
2016-12-28T05:59:05.715Z,8.37
2016-12-28T06:00:06.386Z,8.3
2016-12-28T06:01:07.094Z,8.33
2016-12-28T06:02:07.749Z,8.24
2016-12-28T06:03:08.421Z,8.26
2016-12-28T06:04:09.156Z,8.34
2016-12-28T06:05:09.825Z,8.36
2016-12-28T06:06:10.486Z,8.38
2016-12-28T06:07:11.152Z,8.34
2016-12-28T06:08:11.818Z,8.28
2016-12-28T06:09:12.488Z,8.37
2016-12-28T06:10:13.160Z,8.46
2016-12-28T06:11:13.820Z,8.36
2016-12-28T06:12:14.482Z,8.28
2016-12-28T06:13:15.146Z,8.27
2016-12-28T06:14:15.814Z,8.28
2016-12-28T06:15:16.473Z,8.28
2016-12-28T06:16:17.132Z,8.38
2016-12-28T06:17:17.807Z,8.42
2016-12-28T06:18:18.507Z,8.37
2016-12-28T06:19:19.179Z,8.3
2016-12-28T06:20:19.824Z,8.38
2016-12-28T06:21:20.523Z,8.28
2016-12-28T06:22:21.177Z,8.3
2016-12-28T06:23:21.859Z,8.34
2016-12-28T06:24:22.533Z,8.34
2016-12-28T06:25:23.202Z,8.27
2016-12-28T06:26:23.876Z,8.31
2016-12-28T06:27:24.554Z,8.3
2016-12-28T06:28:25.222Z,8.31
2016-12-28T06:29:25.908Z,8.3
2016-12-28T06:30:26.564Z,8.34
2016-12-28T06:31:27.243Z,8.34
2016-12-28T06:32:27.906Z,8.34
2016-12-28T06:33:28.582Z,8.33
2016-12-28T06:34:29.251Z,8.31
2016-12-28T06:35:29.932Z,8.31
2016-12-28T06:36:30.586Z,8.34
2016-12-28T06:37:31.244Z,8.3
2016-12-28T06:38:31.914Z,8.26
2016-12-28T06:39:32.571Z,8.3
2016-12-28T06:40:33.241Z,8.36
2016-12-28T06:41:33.910Z,8.3
2016-12-28T06:42:34.584Z,8.27
2016-12-28T06:43:35.278Z,8.23
2016-12-28T06:44:35.952Z,8.34
2016-12-28T06:45:36.624Z,8.31
2016-12-28T06:46:37.290Z,8.3
2016-12-28T06:47:37.953Z,8.3
2016-12-28T06:48:38.621Z,8.38
2016-12-28T06:49:39.295Z,8.37
2016-12-28T06:50:40.082Z,8.31
2016-12-28T06:51:40.651Z,8.36
2016-12-28T06:52:41.319Z,8.36
2016-12-28T06:53:41.980Z,8.34
2016-12-28T06:54:42.679Z,8.33
2016-12-28T06:55:43.337Z,8.27
2016-12-28T06:56:44.005Z,8.18
2016-12-28T06:57:44.679Z,8.31
2016-12-28T06:58:45.351Z,8.3
2016-12-28T06:59:46.027Z,8.26
2016-12-28T07:00:46.691Z,8.3
2016-12-28T07:01:47.370Z,8.26
2016-12-28T07:02:48.039Z,8.27
2016-12-28T07:03:48.717Z,8.3
2016-12-28T07:04:49.375Z,8.26
2016-12-28T07:05:50.054Z,8.27
2016-12-28T07:06:50.723Z,8.28
2016-12-28T07:07:51.402Z,8.31
2016-12-28T07:08:52.073Z,8.31
2016-12-28T07:09:52.734Z,8.34
2016-12-28T07:10:53.418Z,8.34
2016-12-28T07:11:54.095Z,8.41
2016-12-28T07:12:54.773Z,8.36
2016-12-28T07:13:55.440Z,8.28
2016-12-28T07:14:56.110Z,8.26
2016-12-28T07:15:56.783Z,8.27
2016-12-28T07:16:57.461Z,8.31
2016-12-28T07:17:58.160Z,8.3
2016-12-28T07:18:58.838Z,8.26
2016-12-28T07:19:59.526Z,8.34
2016-12-28T07:21:00.191Z,8.38
2016-12-28T07:22:00.853Z,8.33
2016-12-28T07:23:01.512Z,8.28
2016-12-28T07:24:02.205Z,8.28
2016-12-28T07:25:02.864Z,8.31
2016-12-28T07:26:03.533Z,8.3
2016-12-28T07:27:04.204Z,8.37
2016-12-28T07:28:04.886Z,8.31
2016-12-28T07:29:05.563Z,8.3
2016-12-28T07:30:06.245Z,8.23
2016-12-28T07:31:06.900Z,8.28
2016-12-28T07:32:07.568Z,8.28
2016-12-28T07:33:08.253Z,8.3
2016-12-28T07:34:08.925Z,8.3
2016-12-28T07:35:09.601Z,8.33
2016-12-28T07:36:10.270Z,8.31
2016-12-28T07:37:10.945Z,8.28
2016-12-28T07:38:11.603Z,8.28
2016-12-28T07:39:12.287Z,8.2
2016-12-28T07:40:12.964Z,8.31
2016-12-28T07:41:13.633Z,8.3
2016-12-28T07:42:14.303Z,8.31
2016-12-28T07:43:14.974Z,8.41
2016-12-28T07:44:15.651Z,8.33
2016-12-28T07:45:16.309Z,8.34
2016-12-28T07:46:16.969Z,8.34
2016-12-28T07:47:17.628Z,8.33
2016-12-28T07:48:18.304Z,8.34
2016-12-28T07:49:18.987Z,8.28
2016-12-28T07:50:19.667Z,8.27
2016-12-28T07:51:20.337Z,8.31
2016-12-28T07:52:20.997Z,8.3
2016-12-28T07:53:21.699Z,8.26
2016-12-28T07:54:22.371Z,8.3
2016-12-28T07:55:23.043Z,8.34
2016-12-28T07:56:23.717Z,8.31
2016-12-28T07:57:24.388Z,8.23
2016-12-28T07:58:25.048Z,8.26
2016-12-28T07:59:25.719Z,8.28
2016-12-28T08:00:26.396Z,8.24
2016-12-28T08:01:27.065Z,8.34
2016-12-28T08:02:27.719Z,8.31
2016-12-28T08:03:28.378Z,8.3
2016-12-28T08:04:29.043Z,8.3
2016-12-28T08:05:29.721Z,8.28
2016-12-28T08:06:30.413Z,8.28
2016-12-28T08:07:31.097Z,8.31
2016-12-28T08:08:31.786Z,8.27
2016-12-28T08:09:32.461Z,8.34
2016-12-28T08:10:33.120Z,8.3
2016-12-28T08:11:33.787Z,8.28
2016-12-28T08:12:34.500Z,8.3
2016-12-28T08:13:35.157Z,8.2
2016-12-28T08:14:35.813Z,8.34
2016-12-28T08:15:36.473Z,8.31
2016-12-28T08:16:37.134Z,8.31
2016-12-28T08:17:37.792Z,8.38
2016-12-28T08:18:38.454Z,8.3
2016-12-28T08:19:39.129Z,8.31
2016-12-28T08:20:39.831Z,8.31
2016-12-28T08:21:40.491Z,8.36
2016-12-28T08:22:41.161Z,8.33
2016-12-28T08:23:41.831Z,8.36
2016-12-28T08:24:42.494Z,8.36
2016-12-28T08:25:43.145Z,8.37
2016-12-28T08:26:43.809Z,8.31
2016-12-28T08:27:44.473Z,8.36
2016-12-28T08:28:45.136Z,8.31
2016-12-28T08:29:45.812Z,8.36
2016-12-28T08:30:46.482Z,8.34
2016-12-28T08:31:47.160Z,8.3
2016-12-28T08:32:47.834Z,8.36
2016-12-28T08:33:48.497Z,8.36
2016-12-28T08:34:49.169Z,8.28
2016-12-28T08:35:49.840Z,8.31
2016-12-28T08:36:50.512Z,8.33
2016-12-28T08:37:51.161Z,8.31
2016-12-28T08:38:51.820Z,8.36
2016-12-28T08:39:52.485Z,8.37
2016-12-28T08:40:53.154Z,8.36
2016-12-28T08:41:53.828Z,8.31
2016-12-28T08:42:54.504Z,8.31
2016-12-28T08:43:55.165Z,8.36
2016-12-28T08:44:55.825Z,8.38
2016-12-28T08:45:56.485Z,8.41
2016-12-28T08:46:57.153Z,8.34
2016-12-28T08:47:57.892Z,8.38
2016-12-28T08:48:58.563Z,8.3
2016-12-28T08:49:59.234Z,8.38
2016-12-28T08:50:59.895Z,8.38
2016-12-28T08:52:00.569Z,8.41
2016-12-28T08:53:01.228Z,8.38
2016-12-28T08:54:01.896Z,8.42
2016-12-28T08:55:02.582Z,8.38
2016-12-28T08:56:03.243Z,8.41
2016-12-28T08:57:03.932Z,8.28
2016-12-28T08:58:04.688Z,8.27
2016-12-28T08:59:05.358Z,8.37
2016-12-28T09:00:06.030Z,8.37
2016-12-28T09:01:06.703Z,8.31
2016-12-28T09:02:07.363Z,8.38
2016-12-28T09:03:08.034Z,8.44
2016-12-28T09:04:08.696Z,8.38
2016-12-28T09:05:09.352Z,8.33
2016-12-28T09:06:10.021Z,8.37
2016-12-28T09:07:10.681Z,8.42
2016-12-28T09:08:11.367Z,8.33
2016-12-28T09:09:12.032Z,8.33
2016-12-28T09:10:12.708Z,8.31
2016-12-28T09:11:13.376Z,8.28
2016-12-28T09:12:14.100Z,8.42
2016-12-28T09:13:14.768Z,8.46
2016-12-28T09:14:15.425Z,8.36
2016-12-28T09:15:16.131Z,8.36
2016-12-28T09:16:16.793Z,8.42
2016-12-28T09:17:18.498Z,8.51
2016-12-28T09:18:19.265Z,8.45
2016-12-28T09:19:19.992Z,8.44
2016-12-28T09:20:20.743Z,8.46
2016-12-28T09:21:21.408Z,8.49
2016-12-28T09:22:22.140Z,8.44
2016-12-28T09:23:22.886Z,8.53
2016-12-28T09:24:23.645Z,8.52
2016-12-28T09:25:24.333Z,8.51
2016-12-28T09:26:25.109Z,8.58
2016-12-28T09:27:25.784Z,8.67
2016-12-28T09:28:26.451Z,8.63
2016-12-28T09:29:27.129Z,8.7
2016-12-28T09:30:27.817Z,8.64
2016-12-28T09:31:28.487Z,8.64
2016-12-28T09:32:29.147Z,8.6
2016-12-28T09:33:29.821Z,8.67
2016-12-28T09:34:30.493Z,8.63
2016-12-28T09:35:31.152Z,8.78
2016-12-28T09:36:31.813Z,8.67
2016-12-28T09:37:32.493Z,8.66
2016-12-28T09:38:33.158Z,8.7
2016-12-28T09:39:33.858Z,8.7
2016-12-28T09:40:34.532Z,8.71
2016-12-28T09:41:35.215Z,8.67
2016-12-28T09:42:35.896Z,8.69
2016-12-28T09:43:36.568Z,8.7
2016-12-28T09:44:37.279Z,8.67
2016-12-28T09:45:37.995Z,8.67
2016-12-28T09:46:38.766Z,8.56
2016-12-28T09:47:39.432Z,8.61
2016-12-28T09:48:40.098Z,8.63
2016-12-28T09:49:40.753Z,8.53
2016-12-28T09:50:41.470Z,8.58
2016-12-28T09:51:42.175Z,8.48
2016-12-28T09:52:42.848Z,8.48
2016-12-28T09:53:43.530Z,8.52
2016-12-28T09:54:44.212Z,8.49
2016-12-28T09:55:44.883Z,8.46
2016-12-28T09:56:45.558Z,8.42
2016-12-28T09:57:46.296Z,8.42
2016-12-28T09:58:46.989Z,8.42
2016-12-28T09:59:47.668Z,8.41
2016-12-28T10:00:48.344Z,8.34
2016-12-28T10:01:49.009Z,8.38
2016-12-28T10:02:49.694Z,8.37
2016-12-28T10:03:50.362Z,8.33
2016-12-28T10:04:51.035Z,8.28
2016-12-28T10:05:51.700Z,8.28
2016-12-28T10:06:52.413Z,8.28
2016-12-28T10:07:53.076Z,8.37
2016-12-28T10:08:53.749Z,8.36
2016-12-28T10:09:54.458Z,8.34
2016-12-28T10:10:55.120Z,8.37
2016-12-28T10:11:55.797Z,8.36
2016-12-28T10:12:56.453Z,8.36
2016-12-28T10:13:57.125Z,8.37
2016-12-28T10:14:57.795Z,8.28
2016-12-28T10:15:58.470Z,8.38
2016-12-28T10:16:59.148Z,8.34
2016-12-28T10:17:59.808Z,8.45
2016-12-28T10:19:00.478Z,8.37
2016-12-28T10:20:01.155Z,8.33
2016-12-28T10:21:01.844Z,8.34
2016-12-28T10:22:02.515Z,8.37
2016-12-28T10:23:03.206Z,8.38
2016-12-28T10:24:03.875Z,8.41
2016-12-28T10:25:04.552Z,8.38
2016-12-28T10:26:05.219Z,8.38
2016-12-28T10:27:05.888Z,8.3
2016-12-28T10:28:06.544Z,8.38
2016-12-28T10:29:07.212Z,8.31
2016-12-28T10:30:07.903Z,8.38
2016-12-28T10:31:08.561Z,8.31
2016-12-28T10:32:09.221Z,8.44
2016-12-28T10:33:09.906Z,8.42
2016-12-28T10:34:10.989Z,8.37
2016-12-28T10:35:11.653Z,8.37
2016-12-28T10:36:12.384Z,8.42
2016-12-28T10:37:13.061Z,8.34
2016-12-28T10:38:13.770Z,8.36
2016-12-28T10:39:14.464Z,8.34
2016-12-28T10:40:15.145Z,8.27
2016-12-28T10:41:15.813Z,8.31
2016-12-28T10:42:16.481Z,8.31
2016-12-28T10:43:17.155Z,8.28
2016-12-28T10:44:17.830Z,8.26
2016-12-28T10:45:18.511Z,8.3
2016-12-28T10:46:19.180Z,8.33
2016-12-28T10:47:19.849Z,8.27
2016-12-28T10:48:20.520Z,8.3
2016-12-28T10:49:21.207Z,8.28
2016-12-28T10:50:21.876Z,8.31
2016-12-28T10:51:22.542Z,8.27
2016-12-28T10:52:23.200Z,8.27
2016-12-28T10:53:23.907Z,8.34
2016-12-28T10:54:24.572Z,8.3
2016-12-28T10:55:25.261Z,8.27
2016-12-28T10:56:25.928Z,8.34
2016-12-28T10:57:26.623Z,8.31
2016-12-28T10:58:27.280Z,8.28
2016-12-28T10:59:27.950Z,8.33
2016-12-28T11:00:28.625Z,8.24
2016-12-28T11:01:29.305Z,8.19
2016-12-28T11:02:29.969Z,8.28
2016-12-28T11:03:30.646Z,8.31
2016-12-28T11:04:31.314Z,8.33
2016-12-28T11:05:31.986Z,8.26
2016-12-28T11:06:32.658Z,8.26
2016-12-28T11:07:33.343Z,8.31
2016-12-28T11:08:34.009Z,8.31
2016-12-28T11:09:34.675Z,8.28
2016-12-28T11:10:35.358Z,8.33
2016-12-28T11:11:36.019Z,8.27
2016-12-28T11:12:36.702Z,8.19
2016-12-28T11:13:37.363Z,8.28
2016-12-28T11:14:38.045Z,8.31
2016-12-28T11:15:38.718Z,8.28
2016-12-28T11:16:39.391Z,8.31
2016-12-28T11:17:40.058Z,8.33
2016-12-28T11:18:40.731Z,8.26
2016-12-28T11:19:41.404Z,8.3
2016-12-28T11:20:42.071Z,8.33
2016-12-28T11:21:42.752Z,8.38
2016-12-28T11:22:43.427Z,8.44
2016-12-28T11:23:44.092Z,8.42
2016-12-28T11:24:44.768Z,8.41
2016-12-28T11:25:45.442Z,8.45
2016-12-28T11:26:46.123Z,8.53
2016-12-28T11:27:46.783Z,8.49
2016-12-28T11:28:47.498Z,8.56
2016-12-28T11:29:48.157Z,8.63
2016-12-28T11:30:48.819Z,8.64
2016-12-28T11:31:49.504Z,8.58
2016-12-28T11:32:50.163Z,8.66
2016-12-28T11:33:50.837Z,8.63
2016-12-28T11:34:51.500Z,8.63
2016-12-28T11:35:52.175Z,8.69
2016-12-28T11:36:52.853Z,8.69
2016-12-28T11:37:53.568Z,8.69
2016-12-28T11:38:54.455Z,8.74
2016-12-28T11:39:55.131Z,8.74
2016-12-28T11:40:55.794Z,8.81
2016-12-28T11:41:56.489Z,8.74
2016-12-28T11:42:57.172Z,8.76
2016-12-28T11:43:57.838Z,8.76
2016-12-28T11:44:58.521Z,8.7
2016-12-28T11:45:59.208Z,8.81
2016-12-28T11:46:59.881Z,8.74
2016-12-28T11:48:00.561Z,8.81
2016-12-28T11:49:01.244Z,8.85
2016-12-28T11:50:01.920Z,8.84
2016-12-28T11:51:02.590Z,8.92
2016-12-28T11:52:03.267Z,8.91
2016-12-28T11:53:03.938Z,8.99
2016-12-28T11:54:04.621Z,8.95
2016-12-28T11:55:05.281Z,8.89
2016-12-28T11:56:05.945Z,9.03
2016-12-28T11:57:06.618Z,8.99
2016-12-28T11:58:07.294Z,8.87
2016-12-28T11:59:07.990Z,8.99
2016-12-28T12:00:08.667Z,8.89
2016-12-28T12:01:09.339Z,8.99
2016-12-28T12:02:10.025Z,9.02
2016-12-28T12:03:10.689Z,8.99
2016-12-28T12:04:11.390Z,8.94
2016-12-28T12:05:12.057Z,8.88
2016-12-28T12:06:12.779Z,9
2016-12-28T12:07:13.444Z,9.02
2016-12-28T12:08:14.119Z,8.92
2016-12-28T12:09:14.781Z,8.95
2016-12-28T12:10:15.463Z,8.94
2016-12-28T12:11:16.128Z,8.91
2016-12-28T12:12:16.815Z,8.89
2016-12-28T12:13:17.486Z,8.89
2016-12-28T12:14:18.147Z,8.84
2016-12-28T12:15:18.832Z,8.87
2016-12-28T12:16:19.496Z,8.88
2016-12-28T12:17:20.175Z,8.84
2016-12-28T12:18:20.844Z,8.81
2016-12-28T12:19:21.516Z,8.82
2016-12-28T12:20:22.200Z,8.74
2016-12-28T12:21:22.867Z,8.76
2016-12-28T12:22:23.548Z,8.73
2016-12-28T12:23:24.228Z,8.73
2016-12-28T12:24:24.914Z,8.82
2016-12-28T12:25:25.574Z,8.71
2016-12-28T12:26:26.272Z,8.7
2016-12-28T12:27:26.991Z,8.74
2016-12-28T12:28:27.625Z,8.74
2016-12-28T12:29:28.336Z,8.74
2016-12-28T12:30:29.016Z,8.81
2016-12-28T12:31:29.682Z,8.71
2016-12-28T12:32:30.357Z,8.7
2016-12-28T12:33:31.038Z,8.76
2016-12-28T12:34:31.715Z,8.71
2016-12-28T12:35:32.383Z,8.7
2016-12-28T12:36:33.054Z,8.76
2016-12-28T12:37:33.733Z,8.79
2016-12-28T12:38:34.403Z,8.81
2016-12-28T12:39:35.070Z,8.81
2016-12-28T12:40:35.738Z,8.78
2016-12-28T12:41:36.415Z,8.87
2016-12-28T12:42:37.100Z,8.89
2016-12-28T12:43:37.777Z,8.82
2016-12-28T12:44:38.479Z,8.76
2016-12-28T12:45:39.147Z,8.85
2016-12-28T12:46:39.813Z,8.97
2016-12-28T12:47:40.493Z,8.94
2016-12-28T12:48:41.164Z,8.89
2016-12-28T12:49:41.851Z,8.89
2016-12-28T12:50:42.520Z,8.88
2016-12-28T12:51:43.193Z,8.89
2016-12-28T12:52:43.866Z,8.87
2016-12-28T12:53:44.542Z,8.88
2016-12-28T12:54:45.209Z,8.94
2016-12-28T12:55:45.888Z,8.85
2016-12-28T12:56:46.558Z,8.81
2016-12-28T12:57:47.243Z,8.78
2016-12-28T12:58:47.909Z,8.73
2016-12-28T12:59:48.589Z,8.79
2016-12-28T13:00:49.260Z,8.84
2016-12-28T13:01:49.918Z,8.97
2016-12-28T13:02:50.584Z,8.88
2016-12-28T13:03:51.290Z,8.89
2016-12-28T13:04:51.960Z,8.89
2016-12-28T13:05:52.667Z,8.94
2016-12-28T13:06:53.344Z,8.91
2016-12-28T13:07:54.008Z,8.88
2016-12-28T13:08:54.691Z,8.89
2016-12-28T13:09:55.355Z,8.92
2016-12-28T13:10:56.052Z,8.78
2016-12-28T13:11:56.708Z,8.78
2016-12-28T13:12:57.375Z,8.87
2016-12-28T13:13:58.048Z,8.87
2016-12-28T13:14:58.714Z,8.89
2016-12-28T13:15:59.390Z,8.87
2016-12-28T13:17:00.086Z,8.88
2016-12-28T13:18:00.762Z,8.85
2016-12-28T13:19:01.427Z,8.78
2016-12-28T13:20:02.106Z,8.78
2016-12-28T13:21:02.798Z,8.78
2016-12-28T13:22:03.480Z,8.81
2016-12-28T13:23:04.150Z,8.81
2016-12-28T13:24:04.827Z,8.78
2016-12-28T13:25:05.488Z,8.87
2016-12-28T13:26:06.151Z,8.78
2016-12-28T13:27:06.804Z,8.82
2016-12-28T13:28:07.481Z,8.81
2016-12-28T13:29:08.159Z,8.87
2016-12-28T13:30:08.822Z,8.81
2016-12-28T13:31:09.484Z,8.85